Terminal Aerodrome Forecast
Issued by NWS

Current Version | Previous Version | Text Only | Print | Product List | Glossary On
Versions: 1 2 3 4 5 6 7 8 9 10 11 12 13
000
FTUS42 KTBW 011742
TAFPGD
TAF
KPGD 011742Z 0118/0218 27008KT P6SM VCTS FEW025CB SCT035 BKN250
      TEMPO 0120/0123 VRB10G20KT 3SM TSRA SCT025CB BKN030
     FM020300 VRB06KT P6SM SCT040 SCT250
     FM020500 VRB03KT P6SM SCT250
     FM021600 18006KT P6SM VCSH FEW030 SCT250=

USA.gov is the U.S. government's official web portal to all federal, state and local government web resources and services.